sensor_id;sensor_type;location;lat;lon;timestamp;P1;durP1;ratioP1;P2;durP2;ratioP2
65077;SDS011;51672;51.230;-2.322;2023-01-08T00:00:36;19.92;;;2.22;;
65077;SDS011;51672;51.230;-2.322;2023-01-08T00:04:19;21.73;;;2.75;;
65077;SDS011;51672;51.230;-2.322;2023-01-08T00:08:01;16.03;;;1.83;;
65077;SDS011;51672;51.230;-2.322;2023-01-08T00:11:43;27.38;;;2.70;;
65077;SDS011;51672;51.230;-2.322;2023-01-08T00:15:25;16.38;;;2.00;;
65077;SDS011;51672;51.230;-2.322;2023-01-08T00:19:09;22.23;;;2.25;;
65077;SDS011;51672;51.230;-2.322;2023-01-08T00:22:54;24.00;;;2.63;;
65077;SDS011;51672;51.230;-2.322;2023-01-08T00:26:36;21.08;;;2.42;;
65077;SDS011;51672;51.230;-2.322;2023-01-08T00:30:18;22.00;;;2.03;;
65077;SDS011;51672;51.230;-2.322;2023-01-08T00:34:01;23.97;;;2.10;;
65077;SDS011;51672;51.230;-2.322;2023-01-08T00:37:42;24.70;;;2.65;;
65077;SDS011;51672;51.230;-2.322;2023-01-08T00:41:24;24.83;;;2.28;;
65077;SDS011;51672;51.230;-2.322;2023-01-08T00:45:07;25.27;;;2.63;;
65077;SDS011;51672;51.230;-2.322;2023-01-08T00:48:49;21.52;;;2.03;;
65077;SDS011;51672;51.230;-2.322;2023-01-08T00:52:31;24.27;;;2.35;;
65077;SDS011;51672;51.230;-2.322;2023-01-08T00:56:13;23.55;;;3.03;;
65077;SDS011;51672;51.230;-2.322;2023-01-08T00:59:55;24.80;;;2.57;;
65077;SDS011;51672;51.230;-2.322;2023-01-08T01:03:37;28.42;;;2.72;;
65077;SDS011;51672;51.230;-2.322;2023-01-08T01:07:19;21.75;;;2.10;;
65077;SDS011;51672;51.230;-2.322;2023-01-08T01:11:08;16.73;;;2.23;;
65077;SDS011;51672;51.230;-2.322;2023-01-08T01:15:05;17.70;;;2.17;;
65077;SDS011;51672;51.230;-2.322;2023-01-08T01:18:48;20.38;;;1.98;;
65077;SDS011;51672;51.230;-2.322;2023-01-08T01:22:32;19.92;;;2.85;;
65077;SDS011;51672;51.230;-2.322;2023-01-08T01:26:15;15.18;;;1.83;;
65077;SDS011;51672;51.230;-2.322;2023-01-08T01:29:58;17.48;;;1.98;;
65077;SDS011;51672;51.230;-2.322;2023-01-08T01:33:40;15.35;;;1.95;;
65077;SDS011;51672;51.230;-2.322;2023-01-08T01:37:23;15.30;;;1.30;;
65077;SDS011;51672;51.230;-2.322;2023-01-08T01:41:12;10.93;;;1.08;;
65077;SDS011;51672;51.230;-2.322;2023-01-08T01:45:14;8.93;;;1.55;;
65077;SDS011;51672;51.230;-2.322;2023-01-08T01:49:10;6.10;;;0.67;;
65077;SDS011;51672;51.230;-2.322;2023-01-08T01:56:46;8.88;;;1.02;;
65077;SDS011;51672;51.230;-2.322;2023-01-08T02:00:28;4.77;;;0.60;;
65077;SDS011;51672;51.230;-2.322;2023-01-08T02:04:12;4.47;;;0.50;;
65077;SDS011;51672;51.230;-2.322;2023-01-08T02:07:56;6.22;;;0.82;;
65077;SDS011;51672;51.230;-2.322;2023-01-08T02:11:48;4.72;;;0.70;;
65077;SDS011;51672;51.230;-2.322;2023-01-08T02:19:57;6.72;;;0.70;;
65077;SDS011;51672;51.230;-2.322;2023-01-08T02:24:09;6.35;;;0.80;;
65077;SDS011;51672;51.230;-2.322;2023-01-08T02:27:57;10.10;;;0.80;;
65077;SDS011;51672;51.230;-2.322;2023-01-08T02:31:43;5.88;;;0.98;;
65077;SDS011;51672;51.230;-2.322;2023-01-08T02:35:41;6.57;;;0.70;;
65077;SDS011;51672;51.230;-2.322;2023-01-08T02:43:40;8.60;;;0.77;;
65077;SDS011;51672;51.230;-2.322;2023-01-08T02:54:59;6.50;;;0.70;;
65077;SDS011;51672;51.230;-2.322;2023-01-08T02:58:44;6.70;;;0.75;;
65077;SDS011;51672;51.230;-2.322;2023-01-08T03:02:29;3.72;;;0.50;;
65077;SDS011;51672;51.230;-2.322;2023-01-08T03:06:14;3.70;;;0.40;;
65077;SDS011;51672;51.230;-2.322;2023-01-08T03:09:59;3.13;;;0.30;;
65077;SDS011;51672;51.230;-2.322;2023-01-08T03:13:44;3.15;;;0.40;;
65077;SDS011;51672;51.230;-2.322;2023-01-08T03:17:37;5.60;;;0.47;;
65077;SDS011;51672;51.230;-2.322;2023-01-08T03:21:23;2.33;;;0.55;;
65077;SDS011;51672;51.230;-2.322;2023-01-08T03:25:06;3.20;;;0.73;;
65077;SDS011;51672;51.230;-2.322;2023-01-08T03:28:53;4.60;;;0.40;;
65077;SDS011;51672;51.230;-2.322;2023-01-08T03:32:38;5.23;;;0.33;;
65077;SDS011;51672;51.230;-2.322;2023-01-08T03:36:26;4.43;;;0.30;;
65077;SDS011;51672;51.230;-2.322;2023-01-08T03:40:11;6.88;;;0.60;;
65077;SDS011;51672;51.230;-2.322;2023-01-08T03:43:58;4.87;;;1.00;;
65077;SDS011;51672;51.230;-2.322;2023-01-08T03:47:40;4.93;;;0.60;;
65077;SDS011;51672;51.230;-2.322;2023-01-08T03:51:24;5.50;;;0.52;;
65077;SDS011;51672;51.230;-2.322;2023-01-08T03:55:14;7.30;;;0.70;;
65077;SDS011;51672;51.230;-2.322;2023-01-08T03:59:13;5.70;;;0.57;;
65077;SDS011;51672;51.230;-2.322;2023-01-08T04:02:56;3.78;;;0.50;;
65077;SDS011;51672;51.230;-2.322;2023-01-08T04:06:38;6.93;;;0.40;;
65077;SDS011;51672;51.230;-2.322;2023-01-08T04:10:20;4.97;;;0.43;;
65077;SDS011;51672;51.230;-2.322;2023-01-08T04:14:02;6.57;;;0.40;;
65077;SDS011;51672;51.230;-2.322;2023-01-08T04:17:44;5.30;;;0.60;;
65077;SDS011;51672;51.230;-2.322;2023-01-08T04:21:26;5.27;;;0.57;;
65077;SDS011;51672;51.230;-2.322;2023-01-08T04:25:08;8.27;;;0.80;;
65077;SDS011;51672;51.230;-2.322;2023-01-08T04:28:51;6.43;;;0.88;;
65077;SDS011;51672;51.230;-2.322;2023-01-08T04:32:35;11.60;;;1.00;;
65077;SDS011;51672;51.230;-2.322;2023-01-08T04:36:17;6.63;;;0.63;;
65077;SDS011;51672;51.230;-2.322;2023-01-08T04:39:59;6.32;;;1.02;;
65077;SDS011;51672;51.230;-2.322;2023-01-08T04:43:41;9.32;;;0.80;;
65077;SDS011;51672;51.230;-2.322;2023-01-08T04:47:23;5.87;;;0.67;;
65077;SDS011;51672;51.230;-2.322;2023-01-08T04:51:05;7.55;;;1.15;;
65077;SDS011;51672;51.230;-2.322;2023-01-08T04:54:47;6.47;;;0.60;;
65077;SDS011;51672;51.230;-2.322;2023-01-08T04:58:29;4.67;;;0.60;;
65077;SDS011;51672;51.230;-2.322;2023-01-08T05:02:13;6.90;;;0.65;;
65077;SDS011;51672;51.230;-2.322;2023-01-08T05:05:55;13.05;;;0.70;;
65077;SDS011;51672;51.230;-2.322;2023-01-08T05:09:40;9.77;;;1.20;;
65077;SDS011;51672;51.230;-2.322;2023-01-08T05:13:22;4.75;;;0.40;;
65077;SDS011;51672;51.230;-2.322;2023-01-08T05:17:04;5.43;;;0.82;;
65077;SDS011;51672;51.230;-2.322;2023-01-08T05:20:46;9.95;;;1.13;;
65077;SDS011;51672;51.230;-2.322;2023-01-08T05:24:28;6.73;;;0.70;;
65077;SDS011;51672;51.230;-2.322;2023-01-08T05:28:10;10.18;;;0.82;;
65077;SDS011;51672;51.230;-2.322;2023-01-08T05:31:52;5.60;;;0.93;;
65077;SDS011;51672;51.230;-2.322;2023-01-08T05:35:34;9.70;;;1.13;;
65077;SDS011;51672;51.230;-2.322;2023-01-08T05:39:19;8.98;;;0.93;;
65077;SDS011;51672;51.230;-2.322;2023-01-08T05:43:01;10.55;;;1.45;;
65077;SDS011;51672;51.230;-2.322;2023-01-08T05:46:45;6.87;;;0.67;;
65077;SDS011;51672;51.230;-2.322;2023-01-08T05:50:28;6.88;;;1.08;;
65077;SDS011;51672;51.230;-2.322;2023-01-08T05:54:10;9.23;;;0.90;;
65077;SDS011;51672;51.230;-2.322;2023-01-08T05:57:52;12.27;;;1.35;;
65077;SDS011;51672;51.230;-2.322;2023-01-08T06:01:34;8.00;;;1.10;;
65077;SDS011;51672;51.230;-2.322;2023-01-08T06:05:16;10.30;;;1.30;;
65077;SDS011;51672;51.230;-2.322;2023-01-08T06:08:58;9.38;;;0.93;;
65077;SDS011;51672;51.230;-2.322;2023-01-08T06:12:40;8.33;;;1.23;;
65077;SDS011;51672;51.230;-2.322;2023-01-08T06:16:22;9.57;;;0.77;;
65077;SDS011;51672;51.230;-2.322;2023-01-08T06:20:04;7.38;;;0.70;;
65077;SDS011;51672;51.230;-2.322;2023-01-08T06:23:47;11.57;;;1.43;;
65077;SDS011;51672;51.230;-2.322;2023-01-08T06:27:29;14.77;;;1.60;;
65077;SDS011;51672;51.230;-2.322;2023-01-08T06:31:11;9.13;;;0.80;;
65077;SDS011;51672;51.230;-2.322;2023-01-08T06:34:53;13.20;;;1.42;;
65077;SDS011;51672;51.230;-2.322;2023-01-08T06:38:35;14.10;;;1.30;;
65077;SDS011;51672;51.230;-2.322;2023-01-08T06:42:17;9.60;;;0.90;;
65077;SDS011;51672;51.230;-2.322;2023-01-08T06:45:59;11.32;;;1.13;;
65077;SDS011;51672;51.230;-2.322;2023-01-08T06:49:42;14.13;;;1.23;;
65077;SDS011;51672;51.230;-2.322;2023-01-08T06:53:23;16.20;;;1.75;;
65077;SDS011;51672;51.230;-2.322;2023-01-08T06:57:05;7.45;;;1.13;;
65077;SDS011;51672;51.230;-2.322;2023-01-08T07:00:48;10.87;;;1.30;;
65077;SDS011;51672;51.230;-2.322;2023-01-08T07:04:30;11.88;;;0.90;;
65077;SDS011;51672;51.230;-2.322;2023-01-08T07:08:15;11.52;;;1.10;;
65077;SDS011;51672;51.230;-2.322;2023-01-08T07:11:58;9.90;;;0.68;;
65077;SDS011;51672;51.230;-2.322;2023-01-08T07:15:40;7.17;;;1.03;;
65077;SDS011;51672;51.230;-2.322;2023-01-08T07:19:23;10.38;;;1.17;;
65077;SDS011;51672;51.230;-2.322;2023-01-08T07:23:06;16.33;;;1.17;;
65077;SDS011;51672;51.230;-2.322;2023-01-08T07:26:50;8.70;;;1.00;;
65077;SDS011;51672;51.230;-2.322;2023-01-08T07:30:32;7.60;;;0.70;;
65077;SDS011;51672;51.230;-2.322;2023-01-08T07:34:14;13.10;;;0.95;;
65077;SDS011;51672;51.230;-2.322;2023-01-08T07:37:56;7.80;;;1.00;;
65077;SDS011;51672;51.230;-2.322;2023-01-08T07:41:38;9.20;;;1.02;;
65077;SDS011;51672;51.230;-2.322;2023-01-08T07:45:20;11.88;;;0.93;;
65077;SDS011;51672;51.230;-2.322;2023-01-08T07:49:02;12.38;;;1.40;;
65077;SDS011;51672;51.230;-2.322;2023-01-08T07:52:45;12.60;;;1.33;;
65077;SDS011;51672;51.230;-2.322;2023-01-08T07:56:27;13.88;;;1.77;;
65077;SDS011;51672;51.230;-2.322;2023-01-08T08:00:09;11.35;;;1.50;;
65077;SDS011;51672;51.230;-2.322;2023-01-08T08:03:52;18.00;;;2.37;;
65077;SDS011;51672;51.230;-2.322;2023-01-08T08:07:33;16.23;;;1.25;;
65077;SDS011;51672;51.230;-2.322;2023-01-08T08:11:16;14.85;;;1.02;;
65077;SDS011;51672;51.230;-2.322;2023-01-08T08:14:58;9.53;;;0.80;;
65077;SDS011;51672;51.230;-2.322;2023-01-08T08:18:40;13.73;;;1.17;;
65077;SDS011;51672;51.230;-2.322;2023-01-08T08:22:22;11.63;;;1.30;;
65077;SDS011;51672;51.230;-2.322;2023-01-08T08:26:04;9.55;;;1.33;;
65077;SDS011;51672;51.230;-2.322;2023-01-08T08:29:47;9.80;;;0.97;;
65077;SDS011;51672;51.230;-2.322;2023-01-08T08:33:29;11.05;;;0.95;;
65077;SDS011;51672;51.230;-2.322;2023-01-08T08:37:11;13.32;;;1.33;;
65077;SDS011;51672;51.230;-2.322;2023-01-08T08:40:54;9.90;;;1.23;;
65077;SDS011;51672;51.230;-2.322;2023-01-08T08:48:39;10.60;;;1.02;;
65077;SDS011;51672;51.230;-2.322;2023-01-08T08:52:22;8.60;;;1.30;;
65077;SDS011;51672;51.230;-2.322;2023-01-08T08:56:11;10.35;;;1.60;;
65077;SDS011;51672;51.230;-2.322;2023-01-08T08:59:54;9.53;;;1.10;;
65077;SDS011;51672;51.230;-2.322;2023-01-08T09:03:36;13.27;;;1.42;;
65077;SDS011;51672;51.230;-2.322;2023-01-08T09:07:29;9.18;;;1.20;;
65077;SDS011;51672;51.230;-2.322;2023-01-08T09:11:11;11.53;;;1.97;;
65077;SDS011;51672;51.230;-2.322;2023-01-08T09:14:54;14.63;;;1.13;;
65077;SDS011;51672;51.230;-2.322;2023-01-08T09:18:44;14.77;;;2.25;;
65077;SDS011;51672;51.230;-2.322;2023-01-08T09:22:27;12.23;;;1.50;;
65077;SDS011;51672;51.230;-2.322;2023-01-08T09:26:12;13.73;;;1.60;;
65077;SDS011;51672;51.230;-2.322;2023-01-08T09:30:15;7.47;;;1.27;;
65077;SDS011;51672;51.230;-2.322;2023-01-08T09:33:57;19.05;;;1.70;;
65077;SDS011;51672;51.230;-2.322;2023-01-08T09:41:54;11.05;;;1.45;;
65077;SDS011;51672;51.230;-2.322;2023-01-08T09:45:47;8.77;;;0.95;;
65077;SDS011;51672;51.230;-2.322;2023-01-08T09:49:40;12.80;;;1.13;;
65077;SDS011;51672;51.230;-2.322;2023-01-08T10:01:55;5.55;;;0.75;;
65077;SDS011;51672;51.230;-2.322;2023-01-08T10:09:54;4.95;;;0.93;;
65077;SDS011;51672;51.230;-2.322;2023-01-08T10:30:05;6.53;;;0.40;;
65077;SDS011;51672;51.230;-2.322;2023-01-08T10:38:00;5.95;;;0.90;;
65077;SDS011;51672;51.230;-2.322;2023-01-08T10:50:25;1.88;;;0.30;;
65077;SDS011;51672;51.230;-2.322;2023-01-08T11:02:43;11.77;;;0.75;;
65077;SDS011;51672;51.230;-2.322;2023-01-08T11:10:42;10.60;;;1.10;;
65077;SDS011;51672;51.230;-2.322;2023-01-08T11:19:26;6.65;;;1.17;;
65077;SDS011;51672;51.230;-2.322;2023-01-08T11:27:34;3.70;;;0.63;;
65077;SDS011;51672;51.230;-2.322;2023-01-08T11:40:00;8.03;;;0.50;;
65077;SDS011;51672;51.230;-2.322;2023-01-08T12:01:23;2.42;;;0.43;;
65077;SDS011;51672;51.230;-2.322;2023-01-08T12:10:29;7.20;;;0.40;;
65077;SDS011;51672;51.230;-2.322;2023-01-08T12:19:28;4.25;;;0.80;;
65077;SDS011;51672;51.230;-2.322;2023-01-08T12:32:57;7.13;;;0.75;;
65077;SDS011;51672;51.230;-2.322;2023-01-08T12:37:13;9.40;;;0.60;;
65077;SDS011;51672;51.230;-2.322;2023-01-08T12:45:15;6.57;;;0.60;;
65077;SDS011;51672;51.230;-2.322;2023-01-08T12:57:45;4.53;;;0.80;;
65077;SDS011;51672;51.230;-2.322;2023-01-08T13:02:19;5.03;;;0.75;;
65077;SDS011;51672;51.230;-2.322;2023-01-08T13:11:12;8.65;;;1.20;;
65077;SDS011;51672;51.230;-2.322;2023-01-08T13:15:43;4.40;;;0.88;;
65077;SDS011;51672;51.230;-2.322;2023-01-08T13:23:39;4.93;;;1.10;;
65077;SDS011;51672;51.230;-2.322;2023-01-08T13:31:25;4.18;;;0.50;;
65077;SDS011;51672;51.230;-2.322;2023-01-08T13:43:40;5.80;;;0.70;;
65077;SDS011;51672;51.230;-2.322;2023-01-08T13:51:44;5.87;;;0.50;;
65077;SDS011;51672;51.230;-2.322;2023-01-08T14:04:18;3.70;;;0.70;;
65077;SDS011;51672;51.230;-2.322;2023-01-08T14:08:49;4.35;;;0.60;;
65077;SDS011;51672;51.230;-2.322;2023-01-08T14:13:11;7.00;;;0.88;;
65077;SDS011;51672;51.230;-2.322;2023-01-08T14:25:33;3.55;;;0.80;;
65077;SDS011;51672;51.230;-2.322;2023-01-08T14:33:30;5.73;;;0.47;;
65077;SDS011;51672;51.230;-2.322;2023-01-08T14:45:50;4.40;;;1.17;;
65077;SDS011;51672;51.230;-2.322;2023-01-08T14:53:47;7.80;;;1.20;;
65077;SDS011;51672;51.230;-2.322;2023-01-08T14:58:01;4.28;;;0.93;;
65077;SDS011;51672;51.230;-2.322;2023-01-08T15:01:48;3.13;;;0.82;;
65077;SDS011;51672;51.230;-2.322;2023-01-08T15:06:07;4.20;;;0.80;;
65077;SDS011;51672;51.230;-2.322;2023-01-08T15:18:24;3.85;;;1.20;;
65077;SDS011;51672;51.230;-2.322;2023-01-08T15:26:21;3.67;;;1.27;;
65077;SDS011;51672;51.230;-2.322;2023-01-08T15:34:14;8.50;;;1.63;;
65077;SDS011;51672;51.230;-2.322;2023-01-08T15:46:33;5.10;;;0.93;;
65077;SDS011;51672;51.230;-2.322;2023-01-08T15:54:33;2.80;;;0.60;;
65077;SDS011;51672;51.230;-2.322;2023-01-08T16:02:19;4.07;;;0.80;;
65077;SDS011;51672;51.230;-2.322;2023-01-08T16:14:46;3.65;;;0.57;;
65077;SDS011;51672;51.230;-2.322;2023-01-08T16:22:36;3.83;;;0.73;;
65077;SDS011;51672;51.230;-2.322;2023-01-08T16:30:47;3.67;;;0.65;;
65077;SDS011;51672;51.230;-2.322;2023-01-08T16:34:32;4.40;;;0.87;;
65077;SDS011;51672;51.230;-2.322;2023-01-08T16:38:17;5.68;;;1.48;;
65077;SDS011;51672;51.230;-2.322;2023-01-08T16:41:59;3.22;;;0.68;;
65077;SDS011;51672;51.230;-2.322;2023-01-08T16:45:48;3.97;;;0.70;;
65077;SDS011;51672;51.230;-2.322;2023-01-08T16:49:49;4.72;;;1.77;;
65077;SDS011;51672;51.230;-2.322;2023-01-08T16:53:31;3.85;;;1.20;;
65077;SDS011;51672;51.230;-2.322;2023-01-08T16:57:15;4.97;;;1.70;;
65077;SDS011;51672;51.230;-2.322;2023-01-08T17:00:57;4.00;;;1.60;;
65077;SDS011;51672;51.230;-2.322;2023-01-08T17:04:39;5.75;;;1.80;;
65077;SDS011;51672;51.230;-2.322;2023-01-08T17:08:22;5.90;;;1.70;;
65077;SDS011;51672;51.230;-2.322;2023-01-08T17:12:06;4.40;;;0.97;;
65077;SDS011;51672;51.230;-2.322;2023-01-08T17:15:48;3.92;;;1.13;;
65077;SDS011;51672;51.230;-2.322;2023-01-08T17:19:33;3.13;;;0.80;;
65077;SDS011;51672;51.230;-2.322;2023-01-08T17:23:15;9.23;;;1.33;;
65077;SDS011;51672;51.230;-2.322;2023-01-08T17:26:57;5.80;;;1.20;;
65077;SDS011;51672;51.230;-2.322;2023-01-08T17:30:39;8.82;;;1.05;;
65077;SDS011;51672;51.230;-2.322;2023-01-08T17:34:21;3.87;;;0.90;;
65077;SDS011;51672;51.230;-2.322;2023-01-08T17:38:03;7.13;;;0.70;;
65077;SDS011;51672;51.230;-2.322;2023-01-08T17:41:45;5.80;;;0.80;;
65077;SDS011;51672;51.230;-2.322;2023-01-08T17:45:45;6.38;;;1.45;;
65077;SDS011;51672;51.230;-2.322;2023-01-08T17:49:27;9.53;;;1.20;;
65077;SDS011;51672;51.230;-2.322;2023-01-08T17:53:11;8.15;;;1.20;;
65077;SDS011;51672;51.230;-2.322;2023-01-08T17:56:53;9.70;;;1.45;;
65077;SDS011;51672;51.230;-2.322;2023-01-08T18:00:35;7.53;;;1.67;;
65077;SDS011;51672;51.230;-2.322;2023-01-08T18:04:17;10.75;;;1.80;;
65077;SDS011;51672;51.230;-2.322;2023-01-08T18:07:59;9.55;;;3.30;;
65077;SDS011;51672;51.230;-2.322;2023-01-08T18:11:41;11.83;;;3.47;;
65077;SDS011;51672;51.230;-2.322;2023-01-08T18:15:23;21.52;;;9.30;;
65077;SDS011;51672;51.230;-2.322;2023-01-08T18:19:05;19.67;;;6.95;;
65077;SDS011;51672;51.230;-2.322;2023-01-08T18:22:47;13.82;;;3.90;;
65077;SDS011;51672;51.230;-2.322;2023-01-08T18:26:29;11.63;;;3.30;;
65077;SDS011;51672;51.230;-2.322;2023-01-08T18:30:12;11.68;;;2.78;;
65077;SDS011;51672;51.230;-2.322;2023-01-08T18:33:54;9.05;;;2.80;;
65077;SDS011;51672;51.230;-2.322;2023-01-08T18:37:36;13.47;;;3.17;;
65077;SDS011;51672;51.230;-2.322;2023-01-08T18:41:19;14.07;;;2.40;;
65077;SDS011;51672;51.230;-2.322;2023-01-08T18:45:19;14.07;;;1.75;;
65077;SDS011;51672;51.230;-2.322;2023-01-08T18:49:02;6.57;;;0.90;;
65077;SDS011;51672;51.230;-2.322;2023-01-08T18:52:44;10.57;;;1.23;;
65077;SDS011;51672;51.230;-2.322;2023-01-08T18:56:30;17.17;;;2.80;;
65077;SDS011;51672;51.230;-2.322;2023-01-08T19:00:13;10.82;;;1.52;;
65077;SDS011;51672;51.230;-2.322;2023-01-08T19:03:56;17.77;;;1.73;;
65077;SDS011;51672;51.230;-2.322;2023-01-08T19:07:37;17.75;;;1.75;;
65077;SDS011;51672;51.230;-2.322;2023-01-08T19:11:21;18.38;;;1.33;;
65077;SDS011;51672;51.230;-2.322;2023-01-08T19:15:04;16.63;;;1.20;;
65077;SDS011;51672;51.230;-2.322;2023-01-08T19:18:46;14.25;;;1.73;;
65077;SDS011;51672;51.230;-2.322;2023-01-08T19:22:28;8.70;;;1.17;;
65077;SDS011;51672;51.230;-2.322;2023-01-08T19:26:12;18.00;;;1.20;;
65077;SDS011;51672;51.230;-2.322;2023-01-08T19:29:54;11.85;;;1.20;;
65077;SDS011;51672;51.230;-2.322;2023-01-08T19:33:36;10.18;;;1.65;;
65077;SDS011;51672;51.230;-2.322;2023-01-08T19:37:18;13.40;;;1.23;;
65077;SDS011;51672;51.230;-2.322;2023-01-08T19:41:00;12.17;;;1.40;;
65077;SDS011;51672;51.230;-2.322;2023-01-08T19:44:43;10.63;;;1.38;;
65077;SDS011;51672;51.230;-2.322;2023-01-08T19:48:25;11.15;;;1.20;;
65077;SDS011;51672;51.230;-2.322;2023-01-08T19:52:07;10.70;;;1.50;;
65077;SDS011;51672;51.230;-2.322;2023-01-08T19:55:49;13.95;;;1.58;;
65077;SDS011;51672;51.230;-2.322;2023-01-08T19:59:31;16.38;;;2.35;;
65077;SDS011;51672;51.230;-2.322;2023-01-08T20:03:13;10.80;;;1.00;;
65077;SDS011;51672;51.230;-2.322;2023-01-08T20:06:59;7.75;;;0.90;;
65077;SDS011;51672;51.230;-2.322;2023-01-08T20:10:41;9.70;;;0.80;;
65077;SDS011;51672;51.230;-2.322;2023-01-08T20:14:23;9.32;;;0.90;;
65077;SDS011;51672;51.230;-2.322;2023-01-08T20:18:06;4.20;;;0.70;;
65077;SDS011;51672;51.230;-2.322;2023-01-08T20:21:48;7.47;;;1.08;;
65077;SDS011;51672;51.230;-2.322;2023-01-08T20:25:32;4.95;;;0.55;;
65077;SDS011;51672;51.230;-2.322;2023-01-08T20:29:15;6.60;;;0.50;;
65077;SDS011;51672;51.230;-2.322;2023-01-08T20:32:58;10.70;;;0.80;;
65077;SDS011;51672;51.230;-2.322;2023-01-08T20:36:40;7.00;;;0.80;;
65077;SDS011;51672;51.230;-2.322;2023-01-08T20:40:24;6.77;;;0.90;;
65077;SDS011;51672;51.230;-2.322;2023-01-08T20:44:05;9.45;;;1.13;;
65077;SDS011;51672;51.230;-2.322;2023-01-08T20:47:48;8.82;;;1.17;;
65077;SDS011;51672;51.230;-2.322;2023-01-08T20:51:34;10.68;;;1.00;;
65077;SDS011;51672;51.230;-2.322;2023-01-08T20:55:17;8.07;;;0.97;;
65077;SDS011;51672;51.230;-2.322;2023-01-08T20:59:00;15.15;;;1.40;;
65077;SDS011;51672;51.230;-2.322;2023-01-08T21:02:42;11.25;;;0.93;;
65077;SDS011;51672;51.230;-2.322;2023-01-08T21:06:26;13.33;;;1.40;;
65077;SDS011;51672;51.230;-2.322;2023-01-08T21:10:09;8.13;;;1.20;;
65077;SDS011;51672;51.230;-2.322;2023-01-08T21:13:53;13.10;;;1.55;;
65077;SDS011;51672;51.230;-2.322;2023-01-08T21:17:35;10.27;;;1.63;;
65077;SDS011;51672;51.230;-2.322;2023-01-08T21:21:19;8.18;;;1.52;;
65077;SDS011;51672;51.230;-2.322;2023-01-08T21:25:06;12.32;;;1.02;;
65077;SDS011;51672;51.230;-2.322;2023-01-08T21:28:49;11.77;;;1.45;;
65077;SDS011;51672;51.230;-2.322;2023-01-08T21:32:31;6.30;;;1.00;;
65077;SDS011;51672;51.230;-2.322;2023-01-08T21:36:17;9.00;;;0.90;;
65077;SDS011;51672;51.230;-2.322;2023-01-08T21:40:02;9.80;;;1.42;;
65077;SDS011;51672;51.230;-2.322;2023-01-08T21:43:45;4.93;;;0.77;;
65077;SDS011;51672;51.230;-2.322;2023-01-08T21:47:46;8.85;;;1.13;;
65077;SDS011;51672;51.230;-2.322;2023-01-08T21:51:28;5.05;;;0.70;;
65077;SDS011;51672;51.230;-2.322;2023-01-08T21:55:29;6.47;;;1.00;;
65077;SDS011;51672;51.230;-2.322;2023-01-08T21:59:11;7.30;;;0.80;;
65077;SDS011;51672;51.230;-2.322;2023-01-08T22:02:53;8.55;;;1.05;;
65077;SDS011;51672;51.230;-2.322;2023-01-08T22:06:35;4.25;;;0.75;;
65077;SDS011;51672;51.230;-2.322;2023-01-08T22:10:17;9.20;;;0.80;;
65077;SDS011;51672;51.230;-2.322;2023-01-08T22:13:59;6.78;;;0.88;;
65077;SDS011;51672;51.230;-2.322;2023-01-08T22:17:44;8.77;;;1.58;;
65077;SDS011;51672;51.230;-2.322;2023-01-08T22:21:26;10.83;;;1.47;;
65077;SDS011;51672;51.230;-2.322;2023-01-08T22:25:08;10.40;;;1.83;;
65077;SDS011;51672;51.230;-2.322;2023-01-08T22:28:50;9.85;;;1.92;;
65077;SDS011;51672;51.230;-2.322;2023-01-08T22:32:32;10.57;;;1.63;;
65077;SDS011;51672;51.230;-2.322;2023-01-08T22:36:17;7.53;;;0.85;;
65077;SDS011;51672;51.230;-2.322;2023-01-08T22:39:59;5.18;;;0.70;;
65077;SDS011;51672;51.230;-2.322;2023-01-08T22:43:41;4.15;;;0.45;;
65077;SDS011;51672;51.230;-2.322;2023-01-08T22:47:23;5.27;;;0.33;;
65077;SDS011;51672;51.230;-2.322;2023-01-08T22:51:05;3.50;;;0.50;;
65077;SDS011;51672;51.230;-2.322;2023-01-08T22:54:47;3.90;;;0.68;;
65077;SDS011;51672;51.230;-2.322;2023-01-08T22:58:29;5.30;;;0.53;;
65077;SDS011;51672;51.230;-2.322;2023-01-08T23:02:11;6.10;;;0.70;;
65077;SDS011;51672;51.230;-2.322;2023-01-08T23:06:00;4.35;;;1.00;;
65077;SDS011;51672;51.230;-2.322;2023-01-08T23:09:44;2.83;;;0.50;;
65077;SDS011;51672;51.230;-2.322;2023-01-08T23:13:26;6.05;;;0.40;;
65077;SDS011;51672;51.230;-2.322;2023-01-08T23:17:09;3.60;;;0.70;;
65077;SDS011;51672;51.230;-2.322;2023-01-08T23:20:51;4.10;;;0.80;;
65077;SDS011;51672;51.230;-2.322;2023-01-08T23:24:33;5.37;;;0.80;;
65077;SDS011;51672;51.230;-2.322;2023-01-08T23:28:15;8.07;;;1.15;;
65077;SDS011;51672;51.230;-2.322;2023-01-08T23:31:57;6.45;;;1.30;;
65077;SDS011;51672;51.230;-2.322;2023-01-08T23:35:39;5.63;;;1.07;;
65077;SDS011;51672;51.230;-2.322;2023-01-08T23:39:22;6.22;;;1.00;;
65077;SDS011;51672;51.230;-2.322;2023-01-08T23:43:07;6.60;;;1.20;;
65077;SDS011;51672;51.230;-2.322;2023-01-08T23:46:49;10.60;;;1.17;;
65077;SDS011;51672;51.230;-2.322;2023-01-08T23:50:31;5.80;;;1.17;;
65077;SDS011;51672;51.230;-2.322;2023-01-08T23:54:13;8.90;;;1.50;;
65077;SDS011;51672;51.230;-2.322;2023-01-08T23:57:55;9.00;;;1.58;;
